createdAt,value
2018-05-09T00:01:33.382Z,57.05
2018-05-09T00:04:02.010Z,58.06
2018-05-09T00:06:30.629Z,57.92
2018-05-09T00:08:59.271Z,58.64
2018-05-09T00:11:27.913Z,58.21
2018-05-09T00:13:59.293Z,58.73
2018-05-09T00:16:31.448Z,58.47
2018-05-09T00:19:00.265Z,57.14
2018-05-09T00:21:29.199Z,58.87
2018-05-09T00:23:58.280Z,59.42
2018-05-09T00:26:27.846Z,59.74
2018-05-09T00:28:56.906Z,59.25
2018-05-09T00:31:26.263Z,59.50
2018-05-09T00:33:55.415Z,59.51
2018-05-09T00:36:23.944Z,57.21
2018-05-09T00:38:54.791Z,58.51
2018-05-09T00:41:23.423Z,59.52
2018-05-09T00:43:59.419Z,60.23
2018-05-09T00:46:28.026Z,60.66
2018-05-09T00:48:56.856Z,60.30
2018-05-09T00:51:25.468Z,60.50
2018-05-09T00:53:54.121Z,59.02
2018-05-09T00:56:23.772Z,60.23
2018-05-09T00:58:52.404Z,60.07
2018-05-09T01:01:21.015Z,59.91
2018-05-09T01:03:49.673Z,60.00
2018-05-09T01:06:18.295Z,57.94
2018-05-09T01:08:54.314Z,59.77
2018-05-09T01:11:22.949Z,60.22
2018-05-09T01:13:51.568Z,60.94
2018-05-09T01:16:20.209Z,61.25
2018-05-09T01:18:48.812Z,60.82
2018-05-09T01:21:17.454Z,61.48
2018-05-09T01:23:46.079Z,61.10
2018-05-09T01:26:14.786Z,59.48
2018-05-09T01:28:43.330Z,61.76
2018-05-09T01:31:11.971Z,62.88
2018-05-09T01:33:40.590Z,61.25
2018-05-09T01:36:09.256Z,63.23
2018-05-09T01:38:39.968Z,62.02
2018-05-09T01:41:08.605Z,63.68
2018-05-09T01:43:37.216Z,63.90
2018-05-09T01:46:05.848Z,63.75
2018-05-09T01:48:34.468Z,64.03
2018-05-09T01:51:03.153Z,64.09
2018-05-09T01:53:31.776Z,64.32
2018-05-09T01:56:00.435Z,64.33
2018-05-09T01:58:29.080Z,64.71
2018-05-09T02:00:57.715Z,64.97
2018-05-09T02:03:26.373Z,64.71
2018-05-09T02:05:54.992Z,64.55
2018-05-09T02:08:23.633Z,64.83
2018-05-09T02:10:52.406Z,65.02
2018-05-09T02:13:21.046Z,65.09
2018-05-09T02:15:49.676Z,63.25
2018-05-09T02:18:18.318Z,64.10
2018-05-09T02:20:46.958Z,62.49
2018-05-09T02:23:15.634Z,63.85
2018-05-09T02:25:44.253Z,63.81
2018-05-09T02:28:12.901Z,63.92
2018-05-09T02:30:41.508Z,63.96
2018-05-09T02:33:10.157Z,64.59
2018-05-09T02:35:38.767Z,64.53
2018-05-09T02:38:07.410Z,64.64
2018-05-09T02:40:36.273Z,64.59
2018-05-09T02:43:04.881Z,64.41
2018-05-09T02:45:33.528Z,64.45
2018-05-09T02:48:02.161Z,64.92
2018-05-09T02:50:30.808Z,64.66
2018-05-09T02:52:59.482Z,64.76
2018-05-09T02:55:28.124Z,65.03
2018-05-09T02:57:56.744Z,63.53
2018-05-09T03:00:25.399Z,64.85
2018-05-09T03:02:54.058Z,64.74
2018-05-09T03:05:22.701Z,65.87
2018-05-09T03:07:51.343Z,65.82
2018-05-09T03:10:19.980Z,63.92
2018-05-09T03:12:48.589Z,65.87
2018-05-09T03:15:17.246Z,67.00
2018-05-09T03:17:46.020Z,66.41
2018-05-09T03:20:14.687Z,65.14
2018-05-09T03:22:44.927Z,63.78
2018-05-09T03:25:13.829Z,65.06
2018-05-09T03:27:44.316Z,65.54
2018-05-09T03:30:14.803Z,65.97
2018-05-09T03:32:43.674Z,65.97
2018-05-09T03:35:12.565Z,65.73
2018-05-09T03:37:41.205Z,63.57
2018-05-09T03:40:09.866Z,65.26
2018-05-09T03:42:38.508Z,66.04
2018-05-09T03:45:07.155Z,66.08
2018-05-09T03:47:35.794Z,64.35
2018-05-09T03:50:04.424Z,66.15
2018-05-09T03:52:33.042Z,66.58
2018-05-09T03:55:01.630Z,67.68
2018-05-09T03:57:30.643Z,67.96
2018-05-09T03:59:59.244Z,68.29
2018-05-09T04:03:05.168Z,67.69
2018-05-09T04:06:10.799Z,67.69
2018-05-09T04:09:16.911Z,67.36
2018-05-09T04:11:45.870Z,68.13
2018-05-09T04:14:14.681Z,68.27
2018-05-09T04:16:43.875Z,68.22
2018-05-09T04:19:12.944Z,67.54
2018-05-09T04:21:41.782Z,68.35
2018-05-09T04:24:10.974Z,67.79
2018-05-09T04:26:39.740Z,67.02
2018-05-09T04:29:08.823Z,66.76
2018-05-09T04:31:38.454Z,67.27
2018-05-09T04:34:07.349Z,67.83
2018-05-09T04:36:36.518Z,67.75
2018-05-09T04:39:05.289Z,66.54
2018-05-09T04:41:34.349Z,67.72
2018-05-09T04:44:03.536Z,67.68
2018-05-09T04:46:32.514Z,67.35
2018-05-09T04:49:01.286Z,69.36
2018-05-09T04:51:30.213Z,69.34
2018-05-09T04:53:58.842Z,70.98
2018-05-09T04:56:27.437Z,70.19
2018-05-09T04:58:56.043Z,69.78
2018-05-09T05:01:24.678Z,69.44
2018-05-09T05:03:53.277Z,69.20
2018-05-09T05:06:21.919Z,68.56
2018-05-09T05:08:50.529Z,67.81
2018-05-09T05:11:19.185Z,67.93
2018-05-09T05:13:50.238Z,67.89
2018-05-09T05:16:18.888Z,67.70
2018-05-09T05:18:47.493Z,64.89
2018-05-09T05:21:16.127Z,66.79
2018-05-09T05:23:44.736Z,66.31
2018-05-09T05:26:13.380Z,66.08
2018-05-09T05:28:41.977Z,66.02
2018-05-09T05:31:10.590Z,65.79
2018-05-09T05:33:39.245Z,65.83
2018-05-09T05:36:07.848Z,63.70
2018-05-09T05:38:36.477Z,65.19
2018-05-09T05:41:05.094Z,63.50
2018-05-09T05:43:33.729Z,65.31
2018-05-09T05:46:02.352Z,65.71
2018-05-09T05:48:30.988Z,64.02
2018-05-09T05:50:59.590Z,65.86
2018-05-09T05:53:28.234Z,66.64
2018-05-09T05:55:56.848Z,66.89
2018-05-09T05:58:25.483Z,66.07
2018-05-09T06:00:54.082Z,65.52
2018-05-09T06:03:22.748Z,65.20
2018-05-09T06:05:51.359Z,64.91
2018-05-09T06:08:19.962Z,64.01
2018-05-09T06:10:48.597Z,63.43
2018-05-09T06:13:17.197Z,63.47
2018-05-09T06:15:45.978Z,63.20
2018-05-09T06:18:14.576Z,62.11
2018-05-09T06:20:43.413Z,61.96
2018-05-09T06:23:14.893Z,61.29
2018-05-09T06:25:43.541Z,61.02
2018-05-09T06:28:12.168Z,61.31
2018-05-09T06:30:40.810Z,58.83
2018-05-09T06:33:09.443Z,60.77
2018-05-09T06:35:38.099Z,58.26
2018-05-09T06:38:06.745Z,59.26
2018-05-09T06:40:35.447Z,59.80
2018-05-09T06:43:04.027Z,58.87
2018-05-09T06:45:32.938Z,57.71
2018-05-09T06:48:01.525Z,55.49
2018-05-09T06:50:30.133Z,55.93
2018-05-09T06:52:58.792Z,55.27
2018-05-09T06:55:27.401Z,55.09
2018-05-09T06:57:56.054Z,54.25
2018-05-09T07:00:24.666Z,53.67
2018-05-09T07:02:53.319Z,53.78
2018-05-09T07:05:21.928Z,52.77
2018-05-09T07:07:50.590Z,51.76
2018-05-09T07:10:19.195Z,52.19
2018-05-09T07:12:47.825Z,47.51
2018-05-09T07:15:18.700Z,49.30
2018-05-09T07:17:48.330Z,49.73
2018-05-09T07:20:16.964Z,49.33
2018-05-09T07:22:45.617Z,49.86
2018-05-09T07:25:14.216Z,50.14
2018-05-09T07:27:42.865Z,49.52
2018-05-09T07:30:11.488Z,49.80
2018-05-09T07:32:40.181Z,47.62
2018-05-09T07:35:08.815Z,48.46
2018-05-09T07:37:37.439Z,48.79
2018-05-09T07:40:06.072Z,47.62
2018-05-09T07:42:34.715Z,47.54
2018-05-09T07:45:05.865Z,47.07
2018-05-09T07:47:34.501Z,46.63
2018-05-09T07:50:03.144Z,46.90
2018-05-09T07:52:31.773Z,47.30
2018-05-09T07:55:00.412Z,47.08
2018-05-09T07:57:29.040Z,46.34
2018-05-09T07:59:57.684Z,47.10
2018-05-09T08:02:26.310Z,46.26
2018-05-09T08:04:54.963Z,45.91
2018-05-09T08:07:23.592Z,46.68
2018-05-09T08:09:52.247Z,46.51
2018-05-09T08:12:20.851Z,46.92
2018-05-09T08:14:49.446Z,40.15
2018-05-09T08:17:19.586Z,43.99
2018-05-09T08:19:48.422Z,43.69
2018-05-09T08:22:19.025Z,43.05
2018-05-09T08:24:47.769Z,41.82
2018-05-09T08:27:16.853Z,42.35
2018-05-09T08:29:47.048Z,43.68
2018-05-09T08:32:17.055Z,43.34
2018-05-09T08:34:46.897Z,38.85
2018-05-09T08:37:17.652Z,41.34
2018-05-09T08:39:46.549Z,40.97
2018-05-09T08:42:17.915Z,40.79
2018-05-09T08:44:50.527Z,40.53
2018-05-09T08:47:22.616Z,40.48
2018-05-09T08:49:57.334Z,41.56
2018-05-09T08:52:34.627Z,41.63
2018-05-09T08:55:06.646Z,41.12
2018-05-09T08:57:40.320Z,36.28
2018-05-09T09:00:10.723Z,39.73
2018-05-09T09:02:42.716Z,41.08
2018-05-09T09:05:15.587Z,41.32
2018-05-09T09:07:44.831Z,42.51
2018-05-09T09:10:13.557Z,41.38
2018-05-09T09:12:46.481Z,41.08
2018-05-09T09:15:17.267Z,40.49
2018-05-09T09:17:47.481Z,39.06
2018-05-09T09:20:17.726Z,37.48
2018-05-09T09:22:47.755Z,38.48
2018-05-09T09:25:19.801Z,34.65
2018-05-09T09:27:49.974Z,37.97
2018-05-09T09:30:22.854Z,36.47
2018-05-09T09:32:55.239Z,36.52
2018-05-09T09:35:25.593Z,39.61
2018-05-09T09:38:08.959Z,40.43
2018-05-09T09:40:39.321Z,41.35
2018-05-09T09:43:10.810Z,40.89
2018-05-09T09:45:45.795Z,41.91
2018-05-09T09:53:57.280Z,41.75
2018-05-09T09:56:26.370Z,42.86
2018-05-09T09:58:59.988Z,42.41
2018-05-09T10:01:33.025Z,41.87
2018-05-09T10:04:10.800Z,41.02
2018-05-09T10:06:44.485Z,40.96
2018-05-09T10:09:17.121Z,41.53
2018-05-09T10:11:49.238Z,41.89
2018-05-09T10:14:21.143Z,41.46
2018-05-09T10:16:52.587Z,42.11
2018-05-09T10:19:24.038Z,42.18
2018-05-09T10:21:56.705Z,41.76
2018-05-09T10:24:31.759Z,40.05
2018-05-09T10:27:03.510Z,36.10
2018-05-09T10:29:43.338Z,38.60
2018-05-09T10:35:07.251Z,38.37
2018-05-09T10:37:36.859Z,40.00
2018-05-09T10:40:07.060Z,39.57
2018-05-09T10:42:45.434Z,40.09
2018-05-09T10:48:05.932Z,39.53
2018-05-09T10:50:42.176Z,36.07
2018-05-09T10:53:14.366Z,38.69
2018-05-09T10:55:52.114Z,39.67
2018-05-09T10:58:33.628Z,36.99
2018-05-09T11:01:07.247Z,38.25
2018-05-09T11:06:27.824Z,37.29
2018-05-09T11:09:06.257Z,36.74
2018-05-09T11:11:45.200Z,36.86
2018-05-09T11:17:07.106Z,34.58
2018-05-09T11:19:44.937Z,32.38
2018-05-09T11:25:05.201Z,35.58
2018-05-09T11:27:34.966Z,36.03
2018-05-09T11:30:04.422Z,35.22
2018-05-09T11:32:33.963Z,34.93
2018-05-09T11:35:09.153Z,35.76
2018-05-09T11:37:38.165Z,35.96
2018-05-09T11:40:08.709Z,35.26
2018-05-09T11:42:37.525Z,35.64
2018-05-09T11:45:06.199Z,34.08
2018-05-09T11:47:36.905Z,34.31
2018-05-09T11:50:06.821Z,34.00
2018-05-09T11:52:52.264Z,33.92
2018-05-09T11:55:21.114Z,33.33
2018-05-09T12:00:37.379Z,33.54
2018-05-09T12:03:09.865Z,34.58
2018-05-09T12:05:38.896Z,34.65
2018-05-09T12:08:08.205Z,34.25
2018-05-09T12:10:36.978Z,35.01
2018-05-09T12:13:05.606Z,34.77
2018-05-09T12:15:34.327Z,34.79
2018-05-09T12:20:51.903Z,33.86
2018-05-09T12:23:21.082Z,34.31
2018-05-09T12:25:50.148Z,33.93
2018-05-09T12:28:21.155Z,35.10
2018-05-09T12:30:57.145Z,30.83
2018-05-09T12:33:31.764Z,33.14
2018-05-09T12:36:07.411Z,34.24
2018-05-09T12:41:25.834Z,35.08
2018-05-09T12:44:10.138Z,34.87
2018-05-09T12:46:40.499Z,36.10
2018-05-09T12:49:09.299Z,35.84
2018-05-09T12:51:39.253Z,36.94
2018-05-09T12:56:55.471Z,35.33
2018-05-09T12:59:25.087Z,36.08
2018-05-09T13:01:54.118Z,32.11
2018-05-09T13:04:23.159Z,34.28
2018-05-09T13:06:53.998Z,34.90
2018-05-09T13:09:30.846Z,31.13
2018-05-09T13:12:03.380Z,33.10
2018-05-09T13:14:34.608Z,33.35
2018-05-09T13:17:08.187Z,33.80
2018-05-09T13:19:40.583Z,30.25
2018-05-09T13:22:09.538Z,29.81
2018-05-09T13:24:38.234Z,32.65
2018-05-09T13:27:06.974Z,33.39
2018-05-09T13:29:37.853Z,33.39
2018-05-09T13:32:07.598Z,34.50
2018-05-09T13:34:37.213Z,34.56
2018-05-09T13:37:25.042Z,31.85
2018-05-09T13:42:49.517Z,34.69
2018-05-09T13:48:11.416Z,35.04
2018-05-09T13:50:43.221Z,34.07
2018-05-09T13:56:09.192Z,34.95
2018-05-09T13:58:40.639Z,33.33
2018-05-09T14:01:11.879Z,33.82
2018-05-09T14:03:50.888Z,34.49
2018-05-09T14:06:20.053Z,34.76
2018-05-09T14:08:52.376Z,34.42
2018-05-09T14:11:29.083Z,33.66
2018-05-09T14:13:58.729Z,34.27
2018-05-09T14:16:27.447Z,34.22
2018-05-09T14:18:58.117Z,33.60
2018-05-09T14:21:26.777Z,35.17
2018-05-09T14:24:03.941Z,35.39
2018-05-09T14:26:33.702Z,34.17
2018-05-09T14:29:05.098Z,35.09
2018-05-09T14:34:21.676Z,33.86
2018-05-09T14:36:50.932Z,33.50
2018-05-09T14:39:23.908Z,34.00
2018-05-09T14:41:53.023Z,34.40
2018-05-09T14:44:23.749Z,34.02
2018-05-09T14:47:03.599Z,30.16
2018-05-09T14:49:39.303Z,33.30
2018-05-09T14:52:09.228Z,33.21
2018-05-09T14:57:28.622Z,33.60
2018-05-09T15:00:10.377Z,32.03
2018-05-09T15:02:42.032Z,30.32
2018-05-09T15:05:10.919Z,30.54
2018-05-09T15:07:39.554Z,25.96
2018-05-09T15:10:08.239Z,27.50
2018-05-09T15:12:36.900Z,27.71
2018-05-09T15:15:06.095Z,28.01
2018-05-09T15:20:30.223Z,26.81
2018-05-09T15:23:16.117Z,27.39
2018-05-09T15:25:50.940Z,23.41
2018-05-09T15:28:25.186Z,25.25
2018-05-09T15:33:52.332Z,25.78
2018-05-09T15:36:22.754Z,26.14
2018-05-09T15:38:55.269Z,26.42
2018-05-09T15:41:28.431Z,25.85
2018-05-09T15:43:58.843Z,26.07
2018-05-09T15:46:28.125Z,26.30
2018-05-09T15:48:57.101Z,26.02
2018-05-09T15:51:26.207Z,26.28
2018-05-09T15:53:55.426Z,26.09
2018-05-09T15:56:25.368Z,25.55
2018-05-09T15:58:54.402Z,25.32
2018-05-09T16:01:25.809Z,25.66
2018-05-09T16:03:54.680Z,25.07
2018-05-09T16:06:24.144Z,25.19
2018-05-09T16:08:53.357Z,25.67
2018-05-09T16:11:22.287Z,25.33
2018-05-09T16:13:50.969Z,25.66
2018-05-09T16:16:19.562Z,26.12
2018-05-09T16:18:48.240Z,25.78
2018-05-09T16:21:17.019Z,26.28
2018-05-09T16:23:48.779Z,26.24
2018-05-09T16:26:15.300Z,26.25
2018-05-09T16:29:05.068Z,26.53
2018-05-09T16:31:38.293Z,26.98
2018-05-09T16:34:07.044Z,24.58
2018-05-09T16:36:40.926Z,26.34
2018-05-09T16:39:07.743Z,26.62
2018-05-09T16:41:36.467Z,26.86
2018-05-09T16:44:05.494Z,26.93
2018-05-09T16:46:37.117Z,27.30
2018-05-09T16:49:05.866Z,26.95
2018-05-09T16:51:34.559Z,26.41
2018-05-09T16:54:12.052Z,26.33
2018-05-09T16:56:40.807Z,26.26
2018-05-09T16:59:25.044Z,27.00
2018-05-09T17:01:54.043Z,28.15
2018-05-09T17:04:22.635Z,24.61
2018-05-09T17:06:54.750Z,26.77
2018-05-09T17:12:08.853Z,27.24
2018-05-09T17:14:42.409Z,27.30
2018-05-09T17:17:11.109Z,27.43
2018-05-09T17:19:39.857Z,27.56
2018-05-09T17:22:37.989Z,27.72
2018-05-09T17:25:08.519Z,27.88
2018-05-09T17:27:37.483Z,28.35
2018-05-09T17:30:07.247Z,28.45
2018-05-09T17:32:36.887Z,25.40
2018-05-09T17:46:15.954Z,30.39
2018-05-09T17:48:46.353Z,31.48
2018-05-09T17:51:15.100Z,33.02
2018-05-09T17:56:48.250Z,35.30
2018-05-09T18:27:18.791Z,45.75
2018-05-09T19:30:53.704Z,53.37
2018-05-09T20:04:23.017Z,57.49
2018-05-09T20:18:27.438Z,56.85
2018-05-09T20:20:58.192Z,58.35
2018-05-09T21:25:08.396Z,65.20
2018-05-09T21:27:38.202Z,65.04
2018-05-09T21:30:09.160Z,62.10
2018-05-09T21:32:38.311Z,60.93
2018-05-09T21:35:09.810Z,60.00
2018-05-09T21:37:44.868Z,61.69
2018-05-09T21:40:14.177Z,61.79
2018-05-09T21:42:46.208Z,64.50
2018-05-09T21:45:15.368Z,63.79
2018-05-09T21:47:53.032Z,64.15
2018-05-09T21:50:23.345Z,64.41
2018-05-09T21:52:52.494Z,65.02
2018-05-09T21:55:27.611Z,64.99
2018-05-09T21:57:58.168Z,64.93
2018-05-09T22:00:35.598Z,64.74
2018-05-09T22:03:04.654Z,65.77
2018-05-09T22:05:34.235Z,66.64
2018-05-09T22:08:13.652Z,66.95
2018-05-09T22:10:42.825Z,66.76
2018-05-09T22:13:13.387Z,66.11
2018-05-09T22:15:43.242Z,66.96
2018-05-09T22:21:01.511Z,67.97
2018-05-09T22:23:34.695Z,68.07
2018-05-09T22:26:05.419Z,67.71
2018-05-09T22:28:35.372Z,67.44
2018-05-09T22:31:07.719Z,67.04
2018-05-09T22:36:28.836Z,64.79
2018-05-09T22:41:53.410Z,65.40
2018-05-09T22:44:40.470Z,65.28
2018-05-09T22:47:15.412Z,66.96
2018-05-09T22:49:44.529Z,68.22
2018-05-09T22:55:08.597Z,68.91
2018-05-09T22:57:34.455Z,69.06
2018-05-09T23:00:09.953Z,67.01
2018-05-09T23:02:47.237Z,68.96
2018-05-09T23:05:18.630Z,69.05
2018-05-09T23:07:49.288Z,68.59
2018-05-09T23:10:20.323Z,68.12
2018-05-09T23:12:51.112Z,67.79
2018-05-09T23:15:27.160Z,67.27
2018-05-09T23:20:52.406Z,66.63
2018-05-09T23:23:24.870Z,66.42
2018-05-09T23:25:55.664Z,65.11
2018-05-09T23:28:25.615Z,66.64
2018-05-09T23:42:14.858Z,65.75
2018-05-09T23:53:09.640Z,63.33
